Strona główna
METAR-TAF:

METAR-TAF

Lotnisko :

Danville, Illinois, Stany Zjednoczone

Szerokość geograficzna: 40-11-58N, Długość geograficzna: 087-35-44W, wysokość: 212 m

Aktualna obserwacja pogody

Raport powstał 25 minut temu, godzina 07:35 UTC
Wiatr 8 kt od zachodnio-północny zachód
Temperatura -10°C
Wilgotność 85%
Ciśnienie 1033 hPa
Widzialność: 16.1 km
Zachmurzenie całkowite na wysokości 1900 ft

METAR: KDNV 200735Z AUTO 29008KT 10SM OVC019 M10/M12 A3049 RMK AO2 T10981125

czas: 02:00 (08:00 UTC)


TAF: brakujący

Obserwacja i prognoza pogody dla ponad 4000 lotnisk (raport METAR i TAF).

Dostępne stacje oznaczono żółtymi i czerwonymi punktami na mapie.

Najedź kursorem aby zobaczyć nazwę stacji.

Kliknij aby zobaczyć obserwacje i prognozy pogody.

Aby zmienić mapę: kliknij na zielony przycisk z czarnym krzyżykiem, aby powiększyć; na zielony przycisk z myślnikiem, aby pomniejszyć; na zielone strzałki, aby przejść do map sąsiednich.


METAR-TAF: